Time;durP1;ratioP1;P1;durP2;ratioP2;P2;SDS_P1;SDS_P2;PMS_P1;PMS_P2;Temp;Humidity;BMP_temperature;BMP_pressure;BME280_temperature;BME280_humidity;BME280_pressure;Samples;Min_cycle;Max_cycle;Signal;HPM_P1;HPM_P2
2023/05/10 00:00:13;;;;;;;8.88;7.05;;;13.90;99.90;;;;;;5049959;28;20033;-69
2023/05/10 00:02:39;;;;;;;9.20;6.85;;;13.80;99.90;;;;;;5051567;28;20033;-69
2023/05/10 00:05:05;;;;;;;10.82;7.60;;;13.80;99.90;;;;;;5034919;28;20114;-68
2023/05/10 00:07:31;;;;;;;8.52;6.03;;;13.80;99.90;;;;;;5034274;28;20041;-69
2023/05/10 00:09:56;;;;;;;8.63;6.03;;;13.90;99.90;;;;;;5050817;28;20045;-69
2023/05/10 00:12:22;;;;;;;9.57;6.13;;;14.00;99.90;;;;;;5051531;28;20454;-68
2023/05/10 00:14:47;;;;;;;8.90;6.30;;;13.90;99.90;;;;;;5068159;28;20041;-68
2023/05/10 00:17:13;;;;;;;9.85;5.57;;;13.90;99.90;;;;;;5047487;28;20037;-68
2023/05/10 00:19:38;;;;;;;8.48;5.50;;;13.80;99.90;;;;;;5015091;28;20033;-68
2023/05/10 00:22:04;;;;;;;7.95;5.72;;;13.80;99.90;;;;;;5049325;28;20080;-68
2023/05/10 00:24:30;;;;;;;9.68;6.60;;;13.70;99.90;;;;;;5048120;28;20497;-68
2023/05/10 00:26:55;;;;;;;9.15;6.15;;;13.80;99.90;;;;;;5030953;28;20052;-68
2023/05/10 00:29:21;;;;;;;9.57;6.20;;;13.70;99.90;;;;;;5030941;28;20128;-69
2023/05/10 00:31:46;;;;;;;9.95;6.47;;;13.70;99.90;;;;;;5039683;28;20438;-68
2023/05/10 00:34:12;;;;;;;9.77;6.07;;;13.60;99.90;;;;;;5031404;28;20081;-68
2023/05/10 00:36:38;;;;;;;9.25;6.05;;;13.70;99.90;;;;;;5031355;28;20030;-68
2023/05/10 00:39:03;;;;;;;9.20;5.90;;;13.70;99.90;;;;;;5014947;28;20536;-68
2023/05/10 00:41:32;;;;;;;11.60;6.47;;;13.70;99.90;;;;;;5015203;28;20043;-68
2023/05/10 00:43:58;;;;;;;9.57;6.50;;;13.70;99.90;;;;;;5048257;28;20045;-68
2023/05/10 00:46:24;;;;;;;9.32;6.60;;;13.70;99.90;;;;;;5033113;28;20095;-69
2023/05/10 00:48:50;;;;;;;9.05;6.47;;;13.70;99.90;;;;;;5051178;28;20051;-68
2023/05/10 00:51:16;;;;;;;9.02;5.90;;;13.80;99.90;;;;;;5026456;28;20049;-68
2023/05/10 00:53:42;;;;;;;8.60;6.10;;;13.80;99.90;;;;;;5031192;28;20049;-68
2023/05/10 00:56:08;;;;;;;9.00;5.82;;;13.80;99.90;;;;;;5051250;28;20410;-68
2023/05/10 00:58:33;;;;;;;9.25;6.30;;;13.70;99.90;;;;;;5049024;28;20025;-69
2023/05/10 01:01:01;;;;;;;9.35;5.90;;;13.70;99.90;;;;;;5034214;28;20037;-68
2023/05/10 01:03:27;;;;;;;10.32;5.97;;;13.80;99.90;;;;;;5034970;28;20363;-68
2023/05/10 01:05:53;;;;;;;8.75;6.07;;;13.80;99.90;;;;;;5034665;28;20041;-68
2023/05/10 01:08:19;;;;;;;8.38;6.18;;;13.70;99.90;;;;;;5052501;28;20029;-68
2023/05/10 01:10:45;;;;;;;8.40;6.00;;;13.60;99.90;;;;;;5070366;28;20052;-68
2023/05/10 01:13:12;;;;;;;8.30;5.28;;;13.60;99.90;;;;;;5037801;28;20040;-68
2023/05/10 01:15:38;;;;;;;8.98;5.35;;;13.60;99.90;;;;;;5053394;28;20056;-68
2023/05/10 01:18:04;;;;;;;9.55;5.50;;;13.80;99.90;;;;;;5050956;28;20059;-68
2023/05/10 01:20:40;;;;;;;8.70;5.90;;;13.80;99.90;;;;;;5036220;28;20128;-68
2023/05/10 01:23:30;;;;;;;9.55;5.40;;;13.60;99.90;;;;;;5054545;28;20080;-68
2023/05/10 01:26:23;;;;;;;8.40;5.28;;;13.60;99.90;;;;;;5071061;28;20069;-67
2023/05/10 01:29:09;;;;;;;9.60;5.70;;;13.70;99.90;;;;;;5051793;28;20115;-68
2023/05/10 01:32:01;;;;;;;9.55;5.35;;;13.60;99.90;;;;;;5052745;28;20067;-68
2023/05/10 01:34:42;;;;;;;9.20;6.10;;;13.50;99.90;;;;;;5069813;28;20041;-68
2023/05/10 01:37:13;;;;;;;8.73;5.80;;;13.40;99.90;;;;;;5053985;28;20130;-69
2023/05/10 01:40:00;;;;;;;9.20;5.65;;;13.40;99.90;;;;;;5054029;28;20037;-68
2023/05/10 01:42:36;;;;;;;8.90;5.90;;;13.40;99.90;;;;;;5053861;28;20052;-68
2023/05/10 01:45:27;;;;;;;9.07;5.55;;;13.40;99.90;;;;;;5054076;28;20037;-68
2023/05/10 01:48:06;;;;;;;8.55;5.80;;;13.40;99.90;;;;;;5055695;28;20489;-68
2023/05/10 01:50:34;;;;;;;9.77;5.90;;;13.50;99.90;;;;;;5039938;28;20041;-69
2023/05/10 01:53:02;;;;;;;9.05;6.03;;;13.40;99.90;;;;;;5070252;28;20061;-68
2023/05/10 01:55:32;;;;;;;8.75;6.20;;;13.30;99.90;;;;;;5053591;28;20110;-68
2023/05/10 01:58:06;;;;;;;9.70;6.57;;;13.30;99.90;;;;;;5040834;28;20045;-68
2023/05/10 02:00:33;;;;;;;11.13;6.68;;;13.20;99.90;;;;;;5039202;28;20056;-68
2023/05/10 02:03:01;;;;;;;9.98;7.00;;;13.20;99.90;;;;;;5053490;28;20047;-69
2023/05/10 02:05:29;;;;;;;11.02;7.90;;;13.10;99.90;;;;;;5051873;28;20040;-68
2023/05/10 02:07:56;;;;;;;11.18;7.80;;;13.20;99.90;;;;;;5041249;28;20485;-68
2023/05/10 02:10:22;;;;;;;10.20;7.22;;;13.10;99.90;;;;;;5046580;28;20056;-68
2023/05/10 02:12:49;;;;;;;10.15;6.88;;;13.10;99.90;;;;;;5049784;28;20048;-68
2023/05/10 02:15:21;;;;;;;10.90;7.50;;;13.20;99.90;;;;;;5042151;28;20050;-69
2023/05/10 02:17:47;;;;;;;11.48;7.95;;;13.20;99.90;;;;;;5038419;28;20079;-68
2023/05/10 02:20:13;;;;;;;11.40;7.80;;;13.20;99.90;;;;;;5034144;28;20470;-69
2023/05/10 02:22:40;;;;;;;12.45;8.25;;;13.20;99.90;;;;;;5040777;28;20435;-69
2023/05/10 02:25:07;;;;;;;12.00;8.25;;;13.20;99.90;;;;;;5050720;28;20091;-68
2023/05/10 02:27:34;;;;;;;11.65;7.60;;;13.10;99.90;;;;;;5051908;28;20116;-68
2023/05/10 02:30:01;;;;;;;11.75;7.80;;;13.10;99.90;;;;;;5019757;28;20042;-68
2023/05/10 02:32:27;;;;;;;12.15;8.32;;;13.10;99.90;;;;;;5042819;28;20075;-68
2023/05/10 02:34:54;;;;;;;10.75;7.50;;;13.10;99.90;;;;;;5040785;28;20063;-68
2023/05/10 02:37:21;;;;;;;10.65;7.90;;;13.10;99.90;;;;;;5051758;28;20045;-69
2023/05/10 02:39:51;;;;;;;12.88;8.07;;;13.10;99.90;;;;;;5051258;28;20052;-68
2023/05/10 02:42:19;;;;;;;12.35;8.10;;;13.00;99.90;;;;;;5032698;28;20033;-68
2023/05/10 02:44:51;;;;;;;12.35;8.18;;;13.00;99.90;;;;;;5026261;28;21929;-68
2023/05/10 02:47:17;;;;;;;11.20;7.97;;;13.00;99.90;;;;;;5044735;28;20083;-68
2023/05/10 02:49:43;;;;;;;11.55;7.75;;;13.00;99.90;;;;;;5051959;28;20291;-68
2023/05/10 02:52:10;;;;;;;14.27;7.95;;;13.00;99.90;;;;;;5059185;28;20063;-69
2023/05/10 02:54:43;;;;;;;13.43;8.25;;;13.10;99.90;;;;;;5039292;28;20045;-68
2023/05/10 02:57:14;;;;;;;12.32;8.52;;;13.10;99.90;;;;;;5033937;28;20038;-69
2023/05/10 02:59:42;;;;;;;11.57;8.13;;;13.10;99.90;;;;;;5024932;28;20037;-68
2023/05/10 03:02:09;;;;;;;12.52;8.80;;;13.10;99.90;;;;;;5035333;28;20413;-68
2023/05/10 03:04:34;;;;;;;13.23;8.60;;;13.10;99.90;;;;;;5042742;28;20054;-68
2023/05/10 03:07:00;;;;;;;13.20;8.50;;;13.10;99.90;;;;;;5037571;28;20112;-68
2023/05/10 03:09:26;;;;;;;14.15;8.68;;;13.10;99.90;;;;;;5040951;28;20036;-68
2023/05/10 03:12:16;;;;;;;13.70;9.10;;;13.10;99.90;;;;;;5049338;28;20041;-68
2023/05/10 03:15:07;;;;;;;12.85;8.50;;;13.10;99.90;;;;;;5048574;28;20049;-68
2023/05/10 03:17:47;;;;;;;14.90;9.75;;;13.10;99.90;;;;;;5015554;28;20033;-68
2023/05/10 03:20:38;;;;;;;13.85;9.65;;;13.10;99.90;;;;;;5063102;28;20116;-69
2023/05/10 03:23:11;;;;;;;18.40;10.20;;;13.10;99.90;;;;;;5018590;28;20510;-68
2023/05/10 03:25:39;;;;;;;14.63;9.88;;;13.00;99.90;;;;;;5037268;28;20037;-68
2023/05/10 03:28:05;;;;;;;14.40;10.48;;;13.00;99.90;;;;;;5047860;28;20037;-68
2023/05/10 03:30:31;;;;;;;14.73;10.63;;;13.10;99.90;;;;;;5052213;28;20424;-68
2023/05/10 03:32:57;;;;;;;14.25;9.93;;;13.10;99.90;;;;;;5046924;28;20120;-69
2023/05/10 03:35:23;;;;;;;14.80;10.82;;;13.10;99.90;;;;;;5025962;28;20163;-69
2023/05/10 03:37:49;;;;;;;14.52;9.68;;;13.00;99.90;;;;;;5034078;28;20556;-68
2023/05/10 03:40:15;;;;;;;17.50;11.35;;;13.10;99.90;;;;;;5036963;28;20043;-68
2023/05/10 03:42:41;;;;;;;17.17;10.70;;;13.00;99.90;;;;;;5037049;28;20048;-68
2023/05/10 03:45:07;;;;;;;13.77;9.95;;;13.10;99.90;;;;;;5025729;28;20509;-68
2023/05/10 03:47:33;;;;;;;11.98;9.05;;;13.00;99.90;;;;;;5046763;28;20045;-68
2023/05/10 03:49:58;;;;;;;15.13;9.68;;;13.10;99.90;;;;;;5048186;28;20042;-69
2023/05/10 03:52:25;;;;;;;13.18;9.57;;;13.10;99.90;;;;;;5043544;28;20048;-69
2023/05/10 03:54:50;;;;;;;12.45;8.48;;;13.00;99.90;;;;;;5034858;28;20037;-68
2023/05/10 03:57:16;;;;;;;12.10;8.02;;;13.10;99.90;;;;;;5048879;28;20033;-68
2023/05/10 03:59:41;;;;;;;12.15;8.23;;;13.10;99.90;;;;;;5067602;28;20481;-68
2023/05/10 04:02:07;;;;;;;12.50;9.00;;;13.10;99.90;;;;;;5046747;28;20029;-68
2023/05/10 04:04:32;;;;;;;12.55;8.38;;;13.00;99.90;;;;;;5049018;28;20538;-68
2023/05/10 04:06:58;;;;;;;11.45;8.13;;;13.10;99.90;;;;;;5050594;28;20045;-68
2023/05/10 04:09:24;;;;;;;11.90;7.82;;;13.10;99.90;;;;;;5049040;28;20044;-68
2023/05/10 04:11:49;;;;;;;12.68;8.55;;;13.10;99.90;;;;;;5030957;28;20037;-68
2023/05/10 04:14:15;;;;;;;10.80;7.47;;;13.20;99.90;;;;;;5028694;28;20072;-68
2023/05/10 04:16:41;;;;;;;13.45;8.32;;;13.30;99.90;;;;;;5048737;28;20076;-68
2023/05/10 04:19:06;;;;;;;11.32;7.43;;;13.30;99.90;;;;;;5043742;28;20044;-68
2023/05/10 04:21:32;;;;;;;11.73;7.30;;;13.20;99.90;;;;;;5015095;28;20038;-68
2023/05/10 04:23:57;;;;;;;10.70;7.32;;;13.10;99.90;;;;;;5059089;28;20041;-68
2023/05/10 04:26:24;;;;;;;12.43;7.55;;;13.20;99.90;;;;;;5043189;28;20041;-68
2023/05/10 04:28:50;;;;;;;12.93;6.93;;;13.20;99.90;;;;;;5043353;28;20045;-68
2023/05/10 04:31:17;;;;;;;10.40;6.35;;;13.20;99.90;;;;;;5033898;28;20059;-68
2023/05/10 04:33:42;;;;;;;9.80;5.93;;;13.20;99.90;;;;;;5049050;28;20043;-68
2023/05/10 04:36:08;;;;;;;8.95;5.88;;;13.40;99.90;;;;;;5036636;28;20044;-68
2023/05/10 04:38:33;;;;;;;9.90;5.85;;;13.30;99.90;;;;;;5055552;28;20043;-68
2023/05/10 04:41:08;;;;;;;9.63;6.15;;;13.20;99.90;;;;;;5051655;28;20489;-68
2023/05/10 04:43:34;;;;;;;9.48;5.50;;;13.20;99.90;;;;;;5039740;28;20444;-68
2023/05/10 04:45:59;;;;;;;9.43;6.15;;;13.10;99.90;;;;;;5054381;28;20396;-68
2023/05/10 04:48:25;;;;;;;8.60;5.50;;;13.30;99.90;;;;;;5052884;28;20036;-68
2023/05/10 04:50:51;;;;;;;7.63;5.18;;;13.30;99.90;;;;;;5054895;28;20040;-68
2023/05/10 04:53:16;;;;;;;8.38;5.50;;;13.30;99.90;;;;;;5057978;28;20050;-68
2023/05/10 04:55:42;;;;;;;9.10;5.72;;;13.20;99.90;;;;;;5054781;28;20045;-68
2023/05/10 04:58:08;;;;;;;8.40;5.55;;;13.10;99.90;;;;;;5033827;28;20041;-68
2023/05/10 05:00:33;;;;;;;9.07;5.60;;;13.10;99.90;;;;;;5049583;28;20033;-68
2023/05/10 05:02:59;;;;;;;8.23;5.68;;;13.10;99.90;;;;;;5053481;28;20033;-68
2023/05/10 05:05:25;;;;;;;9.10;6.15;;;13.10;99.90;;;;;;5048271;28;20509;-68
2023/05/10 05:07:50;;;;;;;8.02;5.80;;;13.00;99.90;;;;;;5052745;28;20048;-68
2023/05/10 05:10:16;;;;;;;10.95;5.38;;;13.00;99.90;;;;;;5056748;28;20049;-68
2023/05/10 05:12:42;;;;;;;8.90;5.57;;;13.00;99.90;;;;;;5052740;28;20043;-68
2023/05/10 05:15:10;;;;;;;8.00;5.40;;;13.00;99.90;;;;;;5044255;28;20068;-68
2023/05/10 05:17:36;;;;;;;8.23;5.60;;;12.90;99.90;;;;;;5026029;28;20033;-68
2023/05/10 05:20:03;;;;;;;8.38;5.72;;;12.80;99.90;;;;;;5053552;28;20117;-68
2023/05/10 05:22:28;;;;;;;7.60;5.05;;;12.90;99.90;;;;;;5068307;28;20045;-68
2023/05/10 05:24:55;;;;;;;8.05;5.10;;;12.80;99.90;;;;;;5040276;28;20109;-68
2023/05/10 05:27:24;;;;;;;8.57;4.95;;;12.80;99.90;;;;;;5035624;28;20397;-69
2023/05/10 05:29:53;;;;;;;6.63;4.53;;;12.80;99.90;;;;;;5052307;28;20044;-68
2023/05/10 05:32:19;;;;;;;7.75;5.22;;;12.80;99.90;;;;;;5042618;28;20053;-68
2023/05/10 05:34:45;;;;;;;6.57;4.72;;;12.80;99.90;;;;;;5048058;28;20041;-68
2023/05/10 05:37:19;;;;;;;7.35;4.32;;;12.80;99.90;;;;;;5034064;28;20052;-68
2023/05/10 05:39:45;;;;;;;7.40;4.90;;;12.80;99.90;;;;;;5049342;28;20229;-68
2023/05/10 05:42:11;;;;;;;7.95;4.50;;;12.80;99.90;;;;;;5051036;28;20037;-68
2023/05/10 05:44:38;;;;;;;7.93;4.80;;;12.80;99.90;;;;;;5052101;28;20041;-68
2023/05/10 05:47:04;;;;;;;7.88;4.10;;;12.70;99.90;;;;;;5042518;28;20442;-68
2023/05/10 05:49:30;;;;;;;6.32;3.97;;;12.70;99.90;;;;;;5063338;28;20128;-68
2023/05/10 05:52:03;;;;;;;5.28;3.33;;;12.70;99.90;;;;;;5038512;28;20132;-80
2023/05/10 05:54:29;;;;;;;6.60;3.92;;;12.70;99.90;;;;;;5041866;28;20069;-68
2023/05/10 05:56:56;;;;;;;9.00;3.90;;;12.70;99.90;;;;;;5047434;28;20041;-68
2023/05/10 05:59:22;;;;;;;4.85;3.08;;;12.70;99.90;;;;;;5025428;28;20041;-75
2023/05/10 06:01:47;;;;;;;7.25;3.30;;;12.70;99.90;;;;;;5037035;28;20120;-70
2023/05/10 06:04:13;;;;;;;5.68;3.65;;;12.70;99.90;;;;;;5044868;28;20465;-69
2023/05/10 06:06:39;;;;;;;6.80;3.40;;;12.80;99.90;;;;;;5056680;28;20033;-70
2023/05/10 06:09:04;;;;;;;6.88;3.33;;;12.80;99.90;;;;;;5046100;28;21127;-70
2023/05/10 06:11:31;;;;;;;5.63;3.17;;;12.70;99.90;;;;;;5050221;28;20044;-70
2023/05/10 06:13:58;;;;;;;4.47;2.55;;;12.80;99.90;;;;;;5032029;28;20536;-70
2023/05/10 06:16:23;;;;;;;4.32;2.40;;;12.80;99.90;;;;;;5036763;28;20467;-70
2023/05/10 06:18:49;;;;;;;3.95;2.20;;;12.80;99.90;;;;;;5022799;28;20123;-69
2023/05/10 06:21:15;;;;;;;3.92;2.40;;;12.80;99.90;;;;;;5045389;28;20037;-70
2023/05/10 06:23:41;;;;;;;3.38;2.10;;;12.80;99.90;;;;;;5036770;28;20076;-70
2023/05/10 06:26:07;;;;;;;3.13;2.03;;;12.80;99.90;;;;;;5049834;28;20065;-70
2023/05/10 06:28:33;;;;;;;3.40;2.15;;;12.80;99.90;;;;;;5047015;28;20536;-70
2023/05/10 06:30:59;;;;;;;2.83;1.80;;;12.80;99.90;;;;;;5067559;28;20485;-70
2023/05/10 06:33:25;;;;;;;2.67;1.80;;;12.80;99.90;;;;;;5051144;28;20047;-77
2023/05/10 06:35:51;;;;;;;3.58;1.60;;;12.80;99.90;;;;;;5066878;28;20041;-75
2023/05/10 06:38:17;;;;;;;3.90;1.58;;;12.80;99.90;;;;;;5028232;28;20103;-75
2023/05/10 06:40:42;;;;;;;2.47;1.52;;;12.80;99.90;;;;;;5065782;28;20547;-68
2023/05/10 06:43:08;;;;;;;2.20;1.42;;;12.80;99.90;;;;;;5049782;28;20512;-68
2023/05/10 06:45:34;;;;;;;4.13;1.77;;;12.80;99.90;;;;;;5069338;28;20190;-69
2023/05/10 06:47:59;;;;;;;1.70;1.05;;;12.80;99.90;;;;;;5049748;28;20485;-68
2023/05/10 06:50:25;;;;;;;1.33;1.00;;;12.80;99.90;;;;;;5034744;28;20041;-68
2023/05/10 06:52:51;;;;;;;1.13;0.90;;;12.80;99.90;;;;;;5017254;28;20107;-68
2023/05/10 06:55:17;;;;;;;1.95;0.80;;;12.80;99.90;;;;;;5041508;28;20463;-69
2023/05/10 06:57:42;;;;;;;0.60;0.60;;;12.80;99.90;;;;;;5052105;28;20469;-69
2023/05/10 07:00:09;;;;;;;0.75;0.60;;;12.80;99.90;;;;;;5045020;28;20041;-69
2023/05/10 07:02:35;;;;;;;1.15;0.70;;;12.80;99.90;;;;;;5036562;28;20485;-77
2023/05/10 07:05:01;;;;;;;1.05;0.60;;;12.90;99.90;;;;;;5048972;28;20040;-79
2023/05/10 07:07:27;;;;;;;1.45;0.47;;;12.90;99.90;;;;;;5045507;28;20037;-69
2023/05/10 07:09:53;;;;;;;1.20;0.30;;;12.90;99.90;;;;;;5066193;28;20059;-69
2023/05/10 07:12:19;;;;;;;0.30;0.30;;;12.90;99.90;;;;;;5044752;28;20489;-69
2023/05/10 07:14:45;;;;;;;3.92;0.43;;;12.90;99.90;;;;;;5046375;28;20040;-69
2023/05/10 07:17:10;;;;;;;0.40;0.40;;;13.00;99.90;;;;;;5034861;28;20045;-70
2023/05/10 07:19:36;;;;;;;0.30;0.30;;;12.90;99.90;;;;;;5057808;28;20405;-69
2023/05/10 07:22:02;;;;;;;0.28;0.22;;;12.90;99.90;;;;;;5051738;28;20114;-69
2023/05/10 07:24:27;;;;;;;0.93;0.20;;;12.90;99.90;;;;;;5052286;28;20084;-69
2023/05/10 07:26:53;;;;;;;0.20;0.20;;;12.90;99.90;;;;;;5048451;28;20052;-69
2023/05/10 07:29:18;;;;;;;0.22;0.22;;;12.90;99.90;;;;;;5042731;28;20041;-69
2023/05/10 07:31:44;;;;;;;0.30;0.30;;;12.90;99.90;;;;;;5020305;28;20111;-69
2023/05/10 07:34:09;;;;;;;0.22;0.22;;;12.90;99.90;;;;;;5030636;28;20500;-69
2023/05/10 07:36:35;;;;;;;0.30;0.30;;;13.00;99.90;;;;;;5037372;28;20037;-69
2023/05/10 07:39:01;;;;;;;0.70;0.40;;;13.00;99.90;;;;;;5057650;28;20045;-70
2023/05/10 07:41:28;;;;;;;0.77;0.40;;;13.00;99.90;;;;;;5037266;28;20466;-69
2023/05/10 07:43:53;;;;;;;0.30;0.30;;;13.10;99.90;;;;;;5050317;28;20402;-69
2023/05/10 07:46:19;;;;;;;0.50;0.50;;;13.20;99.90;;;;;;5050365;28;20045;-69
2023/05/10 07:48:45;;;;;;;1.38;0.57;;;13.20;99.90;;;;;;5048841;28;20610;-69
2023/05/10 07:51:11;;;;;;;0.88;0.50;;;13.20;99.90;;;;;;5047667;28;20041;-69
2023/05/10 07:53:37;;;;;;;0.73;0.60;;;13.20;99.90;;;;;;5033262;28;20041;-69
2023/05/10 07:56:27;;;;;;;1.30;0.70;;;13.20;99.90;;;;;;5040291;28;20119;-69
2023/05/10 07:58:53;;;;;;;2.38;0.90;;;13.20;99.90;;;;;;5066409;28;20041;-69
2023/05/10 08:01:19;;;;;;;1.65;1.20;;;13.10;99.90;;;;;;5067328;28;20060;-69
2023/05/10 08:03:45;;;;;;;3.15;1.40;;;13.30;99.90;;;;;;5042364;28;20045;-69
2023/05/10 08:06:11;;;;;;;3.65;2.00;;;13.20;99.90;;;;;;5042278;28;20056;-69
2023/05/10 08:08:36;;;;;;;4.07;2.30;;;13.20;99.90;;;;;;5049723;28;20374;-70
2023/05/10 08:11:03;;;;;;;6.32;2.80;;;13.20;99.90;;;;;;5045649;28;20049;-69
2023/05/10 08:13:29;;;;;;;4.35;2.70;;;13.20;99.90;;;;;;5036226;28;20052;-69
2023/05/10 08:15:54;;;;;;;5.50;3.15;;;13.20;99.90;;;;;;5051848;28;20506;-69
2023/05/10 08:18:20;;;;;;;4.53;2.65;;;13.20;99.90;;;;;;5034662;28;20489;-70
2023/05/10 08:20:46;;;;;;;5.20;2.50;;;13.30;99.90;;;;;;5045036;28;20044;-69
2023/05/10 08:23:15;;;;;;;4.28;2.40;;;13.20;99.90;;;;;;5048591;28;20045;-69
2023/05/10 08:25:41;;;;;;;4.30;2.58;;;13.30;99.90;;;;;;5035064;28;20048;-69
2023/05/10 08:28:06;;;;;;;5.90;2.65;;;13.30;99.90;;;;;;5035154;28;20049;-69
2023/05/10 08:30:32;;;;;;;4.82;2.90;;;13.40;99.90;;;;;;5035308;28;20037;-69
2023/05/10 08:32:58;;;;;;;4.60;2.80;;;13.30;99.90;;;;;;5028415;28;20187;-70
2023/05/10 08:35:24;;;;;;;4.05;2.40;;;13.40;99.90;;;;;;5054319;28;20554;-69
2023/05/10 08:37:50;;;;;;;4.55;2.63;;;13.30;99.90;;;;;;5044736;28;20713;-70
2023/05/10 08:40:18;;;;;;;6.53;2.80;;;13.30;99.90;;;;;;5057641;28;20043;-69
2023/05/10 08:42:51;;;;;;;5.50;2.72;;;13.30;99.90;;;;;;5053451;28;20082;-70
2023/05/10 08:45:18;;;;;;;4.55;2.70;;;13.30;99.90;;;;;;5038731;28;20456;-69
2023/05/10 08:47:45;;;;;;;5.22;2.55;;;13.40;99.90;;;;;;5053670;28;20064;-70
2023/05/10 08:50:11;;;;;;;5.20;2.90;;;13.40;99.90;;;;;;5055240;28;20116;-70
2023/05/10 08:52:40;;;;;;;5.82;2.80;;;13.40;99.90;;;;;;5039473;28;20149;-70
2023/05/10 08:55:06;;;;;;;5.75;3.35;;;13.30;99.90;;;;;;5049529;28;20044;-70
2023/05/10 08:57:32;;;;;;;5.88;2.90;;;13.30;99.90;;;;;;5052786;28;20520;-70
2023/05/10 08:59:59;;;;;;;4.78;2.97;;;13.40;99.90;;;;;;5053663;28;20045;-69
2023/05/10 09:02:25;;;;;;;5.20;2.63;;;13.40;99.90;;;;;;5063895;28;20095;-69
2023/05/10 09:04:51;;;;;;;6.05;2.80;;;13.30;99.90;;;;;;5047971;28;20035;-71
2023/05/10 09:07:17;;;;;;;5.45;2.92;;;13.40;99.90;;;;;;5040790;28;20051;-69
2023/05/10 09:09:43;;;;;;;4.45;2.47;;;13.40;99.90;;;;;;5026485;28;20124;-70
2023/05/10 09:12:11;;;;;;;6.43;3.13;;;13.50;99.90;;;;;;5053986;28;20129;-69
2023/05/10 09:14:37;;;;;;;7.45;3.30;;;13.60;99.90;;;;;;5037517;28;20042;-70
2023/05/10 09:17:04;;;;;;;5.15;2.95;;;13.60;99.90;;;;;;5034013;28;20494;-70
2023/05/10 09:19:29;;;;;;;5.35;3.10;;;13.50;99.90;;;;;;5035330;28;20037;-70
2023/05/10 09:21:56;;;;;;;4.13;2.80;;;13.60;99.90;;;;;;5052774;28;20036;-70
2023/05/10 09:24:26;;;;;;;5.05;2.88;;;13.60;99.90;;;;;;5036787;28;20041;-70
2023/05/10 09:26:51;;;;;;;7.03;3.60;;;13.60;99.90;;;;;;5037356;28;20041;-70
2023/05/10 09:29:17;;;;;;;7.65;4.03;;;13.70;99.90;;;;;;5034008;28;20041;-70
2023/05/10 09:31:50;;;;;;;6.25;3.50;;;13.70;99.90;;;;;;5050410;28;20486;-70
2023/05/10 09:34:22;;;;;;;6.32;3.22;;;13.80;99.90;;;;;;5033968;28;20041;-70
2023/05/10 09:36:56;;;;;;;5.82;3.30;;;13.90;99.90;;;;;;5034047;28;20045;-70
2023/05/10 09:39:30;;;;;;;6.40;2.80;;;13.90;99.90;;;;;;5017213;28;20548;-70
2023/05/10 09:41:56;;;;;;;7.47;3.03;;;14.00;99.90;;;;;;5055842;28;20113;-70
2023/05/10 09:44:22;;;;;;;5.25;3.10;;;14.00;99.90;;;;;;5053608;28;20068;-70
2023/05/10 09:46:52;;;;;;;6.43;3.13;;;14.00;99.90;;;;;;5047065;28;20076;-70
2023/05/10 09:49:19;;;;;;;5.47;2.90;;;14.00;99.90;;;;;;5035153;28;20497;-70
2023/05/10 09:51:45;;;;;;;5.38;2.83;;;14.00;99.90;;;;;;5051638;28;20057;-70
2023/05/10 09:54:16;;;;;;;5.50;2.83;;;13.90;99.90;;;;;;5051424;28;20041;-71
2023/05/10 09:56:42;;;;;;;6.60;3.38;;;14.00;99.90;;;;;;5051906;28;20044;-72
2023/05/10 09:59:10;;;;;;;5.70;3.05;;;14.10;99.90;;;;;;5037508;28;20041;-72
2023/05/10 10:01:37;;;;;;;5.93;3.10;;;14.20;99.90;;;;;;5032609;28;20477;-70
2023/05/10 10:04:04;;;;;;;5.63;2.95;;;14.30;99.90;;;;;;5052014;28;20493;-70
2023/05/10 10:06:38;;;;;;;4.35;2.63;;;14.30;99.90;;;;;;5046283;28;20039;-70
2023/05/10 10:09:08;;;;;;;5.15;3.10;;;14.30;99.90;;;;;;5051374;28;20045;-71
2023/05/10 10:11:38;;;;;;;6.40;3.40;;;14.30;99.90;;;;;;5032027;28;20489;-70
2023/05/10 10:14:04;;;;;;;6.65;3.70;;;14.30;99.90;;;;;;5043569;28;20053;-70
2023/05/10 10:16:31;;;;;;;7.45;3.80;;;14.30;99.90;;;;;;5046575;28;20040;-70
2023/05/10 10:18:57;;;;;;;6.47;3.97;;;14.30;99.90;;;;;;5032525;28;20042;-70
2023/05/10 10:21:23;;;;;;;6.90;3.75;;;14.20;99.90;;;;;;5048737;28;20037;-71
2023/05/10 10:23:50;;;;;;;6.93;4.10;;;14.20;99.90;;;;;;5045665;28;20036;-70
2023/05/10 10:26:17;;;;;;;7.90;3.72;;;14.20;99.90;;;;;;5024250;28;20073;-70
2023/05/10 10:28:56;;;;;;;6.50;4.05;;;14.10;99.90;;;;;;5049018;28;20051;-70
2023/05/10 10:31:32;;;;;;;7.22;4.28;;;14.10;99.90;;;;;;5032759;28;20073;-71
2023/05/10 10:34:07;;;;;;;7.28;4.32;;;14.10;99.90;;;;;;5051221;28;20083;-70
2023/05/10 10:36:40;;;;;;;8.95;4.93;;;14.10;99.90;;;;;;5039306;28;20077;-70
2023/05/10 10:39:09;;;;;;;8.82;5.10;;;14.10;99.90;;;;;;5048000;28;20489;-70
2023/05/10 10:41:51;;;;;;;7.40;4.53;;;14.10;99.90;;;;;;5048671;28;20037;-71
2023/05/10 10:44:26;;;;;;;10.20;5.38;;;14.10;99.90;;;;;;5042518;28;20033;-70
2023/05/10 10:47:03;;;;;;;9.00;5.22;;;14.10;99.90;;;;;;5039833;28;20049;-70
2023/05/10 10:49:32;;;;;;;9.50;4.82;;;14.20;99.90;;;;;;5051375;28;20047;-70
2023/05/10 10:52:22;;;;;;;9.40;5.10;;;14.20;99.90;;;;;;5063980;28;20088;-70
2023/05/10 10:55:10;;;;;;;8.80;5.50;;;14.30;99.90;;;;;;5049253;28;20135;-70
2023/05/10 10:58:04;;;;;;;9.95;5.38;;;14.30;99.90;;;;;;5050216;28;20037;-70
2023/05/10 11:00:37;;;;;;;10.85;4.97;;;14.30;99.90;;;;;;5019821;28;20094;-70
2023/05/10 11:03:06;;;;;;;8.68;5.35;;;14.30;99.90;;;;;;5051775;28;20041;-70
2023/05/10 11:05:36;;;;;;;10.23;5.47;;;14.30;99.90;;;;;;5068049;28;20040;-71
2023/05/10 11:08:16;;;;;;;10.10;5.97;;;14.30;99.90;;;;;;5043334;28;20128;-70
2023/05/10 11:10:58;;;;;;;8.98;5.55;;;14.20;99.90;;;;;;5041913;28;20091;-70
2023/05/10 11:13:33;;;;;;;7.65;4.78;;;14.30;99.90;;;;;;5051188;28;20041;-70
2023/05/10 11:16:11;;;;;;;9.65;5.40;;;14.30;99.90;;;;;;5049875;28;20064;-70
2023/05/10 11:18:37;;;;;;;8.63;4.95;;;14.30;99.90;;;;;;5045850;28;20037;-70
2023/05/10 11:21:04;;;;;;;10.00;5.82;;;14.30;99.90;;;;;;5034705;28;20044;-70
2023/05/10 11:23:51;;;;;;;8.70;5.38;;;14.30;99.90;;;;;;5025157;28;20033;-70
2023/05/10 11:26:17;;;;;;;9.65;5.00;;;14.40;99.90;;;;;;5035376;28;20037;-70
2023/05/10 11:28:47;;;;;;;9.27;5.40;;;14.30;99.90;;;;;;5033528;28;20091;-70
2023/05/10 11:31:17;;;;;;;8.60;4.80;;;14.40;99.90;;;;;;5032410;28;20037;-70
2023/05/10 11:33:44;;;;;;;9.43;4.80;;;14.40;99.90;;;;;;5035140;28;20095;-70
2023/05/10 11:36:18;;;;;;;7.88;4.65;;;14.40;99.90;;;;;;5045678;28;20120;-70
2023/05/10 11:38:43;;;;;;;10.23;4.95;;;14.40;99.90;;;;;;5027325;28;20068;-70
2023/05/10 11:41:11;;;;;;;8.55;4.95;;;14.30;99.90;;;;;;5067279;28;20079;-70
2023/05/10 11:43:38;;;;;;;7.60;4.68;;;14.40;99.90;;;;;;5040581;28;20041;-70
2023/05/10 11:46:11;;;;;;;9.85;5.10;;;14.40;99.90;;;;;;5043616;28;20048;-70
2023/05/10 11:48:39;;;;;;;9.50;5.00;;;14.40;99.90;;;;;;5033985;28;20095;-70
2023/05/10 11:51:04;;;;;;;10.10;5.53;;;14.40;99.90;;;;;;5045209;28;20037;-70
2023/05/10 11:53:32;;;;;;;8.32;4.60;;;14.50;99.90;;;;;;5033557;28;20099;-70
2023/05/10 11:56:08;;;;;;;8.23;4.60;;;14.50;99.90;;;;;;5050897;28;20555;-70
2023/05/10 11:58:35;;;;;;;7.97;4.28;;;14.50;99.90;;;;;;5049574;28;20040;-70
2023/05/10 12:01:01;;;;;;;9.07;4.70;;;14.60;99.90;;;;;;5049673;28;20374;-70
2023/05/10 12:03:30;;;;;;;7.57;4.45;;;14.60;99.90;;;;;;5039242;28;20440;-70
2023/05/10 12:05:57;;;;;;;9.00;4.50;;;14.60;99.90;;;;;;5047467;28;20478;-70
2023/05/10 12:08:28;;;;;;;8.18;4.47;;;14.60;99.90;;;;;;5037386;28;20131;-70
2023/05/10 12:11:03;;;;;;;11.50;4.50;;;14.60;99.90;;;;;;5032531;28;20037;-70
2023/05/10 12:13:29;;;;;;;9.02;4.85;;;14.70;99.90;;;;;;5032594;28;20156;-70
2023/05/10 12:15:57;;;;;;;9.25;5.40;;;14.70;99.90;;;;;;5040673;28;20123;-70
2023/05/10 12:18:26;;;;;;;11.65;5.70;;;14.70;99.90;;;;;;5035876;28;20033;-70
2023/05/10 12:20:53;;;;;;;9.75;5.25;;;14.60;99.90;;;;;;5039703;28;20037;-71
2023/05/10 12:23:20;;;;;;;8.60;5.60;;;14.70;99.90;;;;;;5034590;28;20041;-71
2023/05/10 12:25:45;;;;;;;9.10;5.00;;;14.70;99.90;;;;;;5035286;28;20044;-70
2023/05/10 12:28:11;;;;;;;9.95;5.32;;;14.60;99.90;;;;;;5066413;28;20041;-71
2023/05/10 12:30:38;;;;;;;9.15;5.38;;;14.70;99.90;;;;;;5040846;28;20037;-70
2023/05/10 12:33:11;;;;;;;8.80;5.10;;;14.80;99.90;;;;;;5026407;28;20479;-71
2023/05/10 12:35:50;;;;;;;11.02;5.70;;;14.80;99.90;;;;;;5038797;28;20095;-70
2023/05/10 12:38:42;;;;;;;11.20;5.68;;;15.00;99.90;;;;;;5043161;28;20045;-70
2023/05/10 12:41:12;;;;;;;11.17;6.03;;;14.90;99.90;;;;;;5043983;28;20049;-71
2023/05/10 12:43:38;;;;;;;10.88;5.63;;;14.80;99.90;;;;;;5047764;28;20299;-71
2023/05/10 12:46:11;;;;;;;9.57;5.28;;;14.80;99.90;;;;;;5030977;28;20033;-71
2023/05/10 12:48:38;;;;;;;12.35;6.50;;;14.70;99.90;;;;;;5059366;28;20044;-71